Airfield :
LOGIN :

Register | Disclaimer

   EN    FR    IT 

 










Legend :    VFR   Marginal VFR   IFR   Intensive IFR   Very Intensive IFR
Visi :
Ceiling :
>= 8 km
>= 3000ft
5 to 8 km
1000 to 3000 ft
1500m to 5 km
500 to 1000 ft
800 to 1500m
200 to 500 ft
< 800m
< 200 ft
Symbols :   Thunderstorms  Fog  Heavy snow  Heavy precipitations  Wind > 20 kt
SIGMETs :     Misc.  Thunderstorms  Icing  Turbulence  Mountain Waves  Volcanic Ashes






- Airport Elevation : 141 ft
- IATA code : TGD


LYPG - Podgorica - Montenegro

CURRENT METAR :
  • 071900Z 34004KT 7000 FEW040 BKN080 09/08 Q1020 NOSIG

EXPIRED METARs :
  • 071830Z 34003KT 290V020 8000 FEW040 SCT080 10/08 Q1020 NOSIG
  • 071800Z 01004KT 9999 FEW040 BKN080 09/08 Q1019 NOSIG
  • 071730Z 02003KT 9999 FEW033 SCT080 09/08 Q1019 NOSIG
  • 071700Z 00000KT 9999 FEW033 09/07 Q1019 NOSIG
  • 071630Z 36002KT 9999 FEW033 SCT040 10/08 Q1019 NOSIG

TAF TAF LYPG
Valid from the 07 at 18:00 until the 08 at 18:00 UTC


071700Z 0718/0818 36005KT 9999 FEW033 TX15/0813Z TN05/0806Z



MET'MAP, your aeronautical weather chart ! - Copyright ORBIFLY December 2007 - Disclaimer

ORBIFLY MET'MAP TEAM :

Programming & Development : Alexandra Zaïnal
Concept & original design : Baudouin d'Aumeries
Assistance for programming : Marc-Olivier Méhu
Technical & hardware support : Manuel Goepfert

Contact : metmap@orbifly.com




SOURCES & CREDITS :

   NOAA